sensor_id;sensor_type;location;lat;lon;timestamp;temperature;humidity
52575;DHT22;38468;48.114;-1.684;2022-08-19T00:00:12;20.10;71.20
52575;DHT22;38468;48.114;-1.684;2022-08-19T00:02:14;20.00;71.40
52575;DHT22;38468;48.114;-1.684;2022-08-19T00:04:16;20.00;71.60
52575;DHT22;38468;48.114;-1.684;2022-08-19T00:06:16;20.00;71.80
52575;DHT22;38468;48.114;-1.684;2022-08-19T00:08:17;20.00;71.80
52575;DHT22;38468;48.114;-1.684;2022-08-19T00:10:18;20.00;71.60
52575;DHT22;38468;48.114;-1.684;2022-08-19T00:12:19;19.70;72.50
52575;DHT22;38468;48.114;-1.684;2022-08-19T00:14:20;19.70;72.70
52575;DHT22;38468;48.114;-1.684;2022-08-19T00:16:21;19.70;72.90
52575;DHT22;38468;48.114;-1.684;2022-08-19T00:18:21;19.70;73.30
52575;DHT22;38468;48.114;-1.684;2022-08-19T00:20:22;19.60;73.60
52575;DHT22;38468;48.114;-1.684;2022-08-19T00:22:22;19.60;73.80
52575;DHT22;38468;48.114;-1.684;2022-08-19T00:24:23;19.70;73.50
52575;DHT22;38468;48.114;-1.684;2022-08-19T00:26:24;19.90;73.10
52575;DHT22;38468;48.114;-1.684;2022-08-19T00:28:25;20.00;72.50
52575;DHT22;38468;48.114;-1.684;2022-08-19T00:30:25;20.00;72.20
52575;DHT22;38468;48.114;-1.684;2022-08-19T00:32:28;20.10;72.10
52575;DHT22;38468;48.114;-1.684;2022-08-19T00:34:28;20.20;72.00
52575;DHT22;38468;48.114;-1.684;2022-08-19T00:36:29;20.20;71.80
52575;DHT22;38468;48.114;-1.684;2022-08-19T00:38:30;20.00;72.50
52575;DHT22;38468;48.114;-1.684;2022-08-19T00:40:31;19.90;72.90
52575;DHT22;38468;48.114;-1.684;2022-08-19T00:42:32;20.00;72.90
52575;DHT22;38468;48.114;-1.684;2022-08-19T00:44:32;20.10;72.40
52575;DHT22;38468;48.114;-1.684;2022-08-19T00:46:34;20.00;72.30
52575;DHT22;38468;48.114;-1.684;2022-08-19T00:48:36;19.80;72.70
52575;DHT22;38468;48.114;-1.684;2022-08-19T00:50:38;19.50;73.50
52575;DHT22;38468;48.114;-1.684;2022-08-19T00:52:42;19.50;73.90
52575;DHT22;38468;48.114;-1.684;2022-08-19T00:54:45;19.60;73.90
52575;DHT22;38468;48.114;-1.684;2022-08-19T00:56:48;19.70;73.40
52575;DHT22;38468;48.114;-1.684;2022-08-19T00:58:49;19.70;73.60
52575;DHT22;38468;48.114;-1.684;2022-08-19T01:00:50;19.70;73.70
52575;DHT22;38468;48.114;-1.684;2022-08-19T01:02:50;19.50;74.10
52575;DHT22;38468;48.114;-1.684;2022-08-19T01:04:52;19.40;74.60
52575;DHT22;38468;48.114;-1.684;2022-08-19T01:06:52;19.40;75.00
52575;DHT22;38468;48.114;-1.684;2022-08-19T01:08:54;19.30;75.10
52575;DHT22;38468;48.114;-1.684;2022-08-19T01:10:56;19.40;75.20
52575;DHT22;38468;48.114;-1.684;2022-08-19T01:12:57;19.50;75.20
52575;DHT22;38468;48.114;-1.684;2022-08-19T01:14:58;19.50;75.40
52575;DHT22;38468;48.114;-1.684;2022-08-19T01:16:59;19.50;75.40
52575;DHT22;38468;48.114;-1.684;2022-08-19T01:19:00;19.60;75.10
52575;DHT22;38468;48.114;-1.684;2022-08-19T01:21:02;19.80;74.80
52575;DHT22;38468;48.114;-1.684;2022-08-19T01:23:04;19.90;74.30
52575;DHT22;38468;48.114;-1.684;2022-08-19T01:25:05;20.00;74.50
52575;DHT22;38468;48.114;-1.684;2022-08-19T01:27:05;19.80;74.80
52575;DHT22;38468;48.114;-1.684;2022-08-19T01:29:06;19.70;75.20
52575;DHT22;38468;48.114;-1.684;2022-08-19T01:31:09;19.80;75.10
52575;DHT22;38468;48.114;-1.684;2022-08-19T01:33:12;19.90;75.10
52575;DHT22;38468;48.114;-1.684;2022-08-19T01:35:13;20.00;75.10
52575;DHT22;38468;48.114;-1.684;2022-08-19T01:37:14;20.00;74.90
52575;DHT22;38468;48.114;-1.684;2022-08-19T01:39:16;20.10;74.90
52575;DHT22;38468;48.114;-1.684;2022-08-19T01:41:17;20.00;75.40
52575;DHT22;38468;48.114;-1.684;2022-08-19T01:43:18;20.00;75.60
52575;DHT22;38468;48.114;-1.684;2022-08-19T01:45:20;20.00;75.80
52575;DHT22;38468;48.114;-1.684;2022-08-19T01:47:20;20.00;75.90
52575;DHT22;38468;48.114;-1.684;2022-08-19T01:49:22;20.00;76.40
52575;DHT22;38468;48.114;-1.684;2022-08-19T01:51:23;20.00;76.70
52575;DHT22;38468;48.114;-1.684;2022-08-19T01:53:24;19.80;77.30
52575;DHT22;38468;48.114;-1.684;2022-08-19T01:55:24;19.60;78.20
52575;DHT22;38468;48.114;-1.684;2022-08-19T01:57:25;19.40;79.00
52575;DHT22;38468;48.114;-1.684;2022-08-19T01:59:26;19.40;79.30
52575;DHT22;38468;48.114;-1.684;2022-08-19T02:01:26;19.30;79.70
52575;DHT22;38468;48.114;-1.684;2022-08-19T02:03:27;19.30;80.00
52575;DHT22;38468;48.114;-1.684;2022-08-19T02:05:29;19.20;80.10
52575;DHT22;38468;48.114;-1.684;2022-08-19T02:07:29;19.20;80.30
52575;DHT22;38468;48.114;-1.684;2022-08-19T02:09:30;19.30;80.50
52575;DHT22;38468;48.114;-1.684;2022-08-19T02:11:31;19.20;80.60
52575;DHT22;38468;48.114;-1.684;2022-08-19T02:13:33;19.30;80.70
52575;DHT22;38468;48.114;-1.684;2022-08-19T02:15:34;19.40;80.20
52575;DHT22;38468;48.114;-1.684;2022-08-19T02:17:35;19.50;80.20
52575;DHT22;38468;48.114;-1.684;2022-08-19T02:19:35;19.50;79.80
52575;DHT22;38468;48.114;-1.684;2022-08-19T02:21:36;19.60;79.60
52575;DHT22;38468;48.114;-1.684;2022-08-19T02:23:37;19.60;79.60
52575;DHT22;38468;48.114;-1.684;2022-08-19T02:25:38;19.50;80.10
52575;DHT22;38468;48.114;-1.684;2022-08-19T02:27:39;19.70;79.90
52575;DHT22;38468;48.114;-1.684;2022-08-19T02:29:40;19.70;79.80
52575;DHT22;38468;48.114;-1.684;2022-08-19T02:31:41;19.70;80.00
52575;DHT22;38468;48.114;-1.684;2022-08-19T02:33:41;19.60;79.90
52575;DHT22;38468;48.114;-1.684;2022-08-19T02:35:42;19.60;80.00
52575;DHT22;38468;48.114;-1.684;2022-08-19T02:37:43;19.50;80.40
52575;DHT22;38468;48.114;-1.684;2022-08-19T02:40:02;19.60;80.10
52575;DHT22;38468;48.114;-1.684;2022-08-19T02:42:03;19.50;80.50
52575;DHT22;38468;48.114;-1.684;2022-08-19T02:44:04;19.50;80.60
52575;DHT22;38468;48.114;-1.684;2022-08-19T02:46:11;19.50;80.60
52575;DHT22;38468;48.114;-1.684;2022-08-19T02:48:12;19.50;80.40
52575;DHT22;38468;48.114;-1.684;2022-08-19T02:50:14;19.60;80.40
52575;DHT22;38468;48.114;-1.684;2022-08-19T02:52:15;19.50;80.80
52575;DHT22;38468;48.114;-1.684;2022-08-19T02:54:15;19.50;81.00
52575;DHT22;38468;48.114;-1.684;2022-08-19T02:56:16;19.50;80.80
52575;DHT22;38468;48.114;-1.684;2022-08-19T02:58:17;19.50;80.70
52575;DHT22;38468;48.114;-1.684;2022-08-19T03:00:18;19.70;80.10
52575;DHT22;38468;48.114;-1.684;2022-08-19T03:02:19;19.70;80.20
52575;DHT22;38468;48.114;-1.684;2022-08-19T03:04:20;19.60;80.40
52575;DHT22;38468;48.114;-1.684;2022-08-19T03:06:20;19.60;80.70
52575;DHT22;38468;48.114;-1.684;2022-08-19T03:08:21;19.50;80.90
52575;DHT22;38468;48.114;-1.684;2022-08-19T03:10:22;19.60;80.90
52575;DHT22;38468;48.114;-1.684;2022-08-19T03:12:23;19.60;80.70
52575;DHT22;38468;48.114;-1.684;2022-08-19T03:14:23;19.60;80.50
52575;DHT22;38468;48.114;-1.684;2022-08-19T03:16:25;19.60;80.90
52575;DHT22;38468;48.114;-1.684;2022-08-19T03:18:25;19.60;80.80
52575;DHT22;38468;48.114;-1.684;2022-08-19T03:20:26;19.70;80.70
52575;DHT22;38468;48.114;-1.684;2022-08-19T03:22:26;19.70;80.60
52575;DHT22;38468;48.114;-1.684;2022-08-19T03:24:27;19.60;80.70
52575;DHT22;38468;48.114;-1.684;2022-08-19T03:26:27;19.60;80.90
52575;DHT22;38468;48.114;-1.684;2022-08-19T03:28:28;19.70;80.70
52575;DHT22;38468;48.114;-1.684;2022-08-19T03:30:29;19.60;80.80
52575;DHT22;38468;48.114;-1.684;2022-08-19T03:32:29;19.60;80.80
52575;DHT22;38468;48.114;-1.684;2022-08-19T03:34:31;19.70;80.80
52575;DHT22;38468;48.114;-1.684;2022-08-19T03:36:32;19.80;80.60
52575;DHT22;38468;48.114;-1.684;2022-08-19T03:38:32;19.60;80.80
52575;DHT22;38468;48.114;-1.684;2022-08-19T03:40:36;19.70;80.90
52575;DHT22;38468;48.114;-1.684;2022-08-19T03:42:36;19.60;81.00
52575;DHT22;38468;48.114;-1.684;2022-08-19T03:44:37;19.70;80.90
52575;DHT22;38468;48.114;-1.684;2022-08-19T03:46:38;19.70;80.80
52575;DHT22;38468;48.114;-1.684;2022-08-19T03:48:39;19.80;80.70
52575;DHT22;38468;48.114;-1.684;2022-08-19T03:50:40;19.70;80.90
52575;DHT22;38468;48.114;-1.684;2022-08-19T03:52:41;19.70;81.00
52575;DHT22;38468;48.114;-1.684;2022-08-19T03:54:42;19.80;80.80
52575;DHT22;38468;48.114;-1.684;2022-08-19T03:56:43;19.80;80.70
52575;DHT22;38468;48.114;-1.684;2022-08-19T03:58:44;19.80;80.90
52575;DHT22;38468;48.114;-1.684;2022-08-19T04:00:44;19.60;81.30
52575;DHT22;38468;48.114;-1.684;2022-08-19T04:02:45;19.70;81.20
52575;DHT22;38468;48.114;-1.684;2022-08-19T04:04:45;19.70;81.00
52575;DHT22;38468;48.114;-1.684;2022-08-19T04:06:46;19.70;81.30
52575;DHT22;38468;48.114;-1.684;2022-08-19T04:08:48;19.70;81.20
52575;DHT22;38468;48.114;-1.684;2022-08-19T04:10:50;19.50;81.60
52575;DHT22;38468;48.114;-1.684;2022-08-19T04:12:51;19.50;82.00
52575;DHT22;38468;48.114;-1.684;2022-08-19T04:14:51;19.50;82.10
52575;DHT22;38468;48.114;-1.684;2022-08-19T04:16:52;19.30;82.30
52575;DHT22;38468;48.114;-1.684;2022-08-19T04:18:53;19.20;82.70
52575;DHT22;38468;48.114;-1.684;2022-08-19T04:20:53;19.20;82.70
52575;DHT22;38468;48.114;-1.684;2022-08-19T04:22:54;19.20;82.90
52575;DHT22;38468;48.114;-1.684;2022-08-19T04:24:54;19.20;82.90
52575;DHT22;38468;48.114;-1.684;2022-08-19T04:26:55;19.30;82.80
52575;DHT22;38468;48.114;-1.684;2022-08-19T04:28:56;19.30;82.70
52575;DHT22;38468;48.114;-1.684;2022-08-19T04:30:56;19.20;82.80
52575;DHT22;38468;48.114;-1.684;2022-08-19T04:32:58;19.20;82.90
52575;DHT22;38468;48.114;-1.684;2022-08-19T04:34:58;19.30;83.00
52575;DHT22;38468;48.114;-1.684;2022-08-19T04:36:59;19.20;83.10
52575;DHT22;38468;48.114;-1.684;2022-08-19T04:39:02;19.20;83.20
52575;DHT22;38468;48.114;-1.684;2022-08-19T04:41:03;19.20;83.20
52575;DHT22;38468;48.114;-1.684;2022-08-19T04:43:22;19.30;83.00
52575;DHT22;38468;48.114;-1.684;2022-08-19T04:45:23;19.40;82.90
52575;DHT22;38468;48.114;-1.684;2022-08-19T04:47:24;19.30;82.90
52575;DHT22;38468;48.114;-1.684;2022-08-19T04:49:24;19.40;83.00
52575;DHT22;38468;48.114;-1.684;2022-08-19T04:51:25;19.30;83.10
52575;DHT22;38468;48.114;-1.684;2022-08-19T04:53:32;19.30;83.20
52575;DHT22;38468;48.114;-1.684;2022-08-19T04:55:33;19.30;83.20
52575;DHT22;38468;48.114;-1.684;2022-08-19T04:57:35;19.30;83.20
52575;DHT22;38468;48.114;-1.684;2022-08-19T04:59:40;19.30;83.20
52575;DHT22;38468;48.114;-1.684;2022-08-19T05:01:42;19.30;83.20
52575;DHT22;38468;48.114;-1.684;2022-08-19T05:03:42;19.40;83.10
52575;DHT22;38468;48.114;-1.684;2022-08-19T05:05:44;19.30;83.20
52575;DHT22;38468;48.114;-1.684;2022-08-19T05:07:45;19.20;83.50
52575;DHT22;38468;48.114;-1.684;2022-08-19T05:09:46;19.20;83.50
52575;DHT22;38468;48.114;-1.684;2022-08-19T05:11:46;19.20;83.50
52575;DHT22;38468;48.114;-1.684;2022-08-19T05:13:48;19.20;83.50
52575;DHT22;38468;48.114;-1.684;2022-08-19T05:15:55;19.10;83.80
52575;DHT22;38468;48.114;-1.684;2022-08-19T05:17:57;19.10;83.90
52575;DHT22;38468;48.114;-1.684;2022-08-19T05:20:16;19.20;83.80
52575;DHT22;38468;48.114;-1.684;2022-08-19T05:22:35;19.20;83.70
52575;DHT22;38468;48.114;-1.684;2022-08-19T05:24:36;19.30;83.70
52575;DHT22;38468;48.114;-1.684;2022-08-19T05:26:37;19.30;83.60
52575;DHT22;38468;48.114;-1.684;2022-08-19T05:28:37;19.20;83.70
52575;DHT22;38468;48.114;-1.684;2022-08-19T05:30:38;19.30;83.60
52575;DHT22;38468;48.114;-1.684;2022-08-19T05:32:41;19.20;83.60
52575;DHT22;38468;48.114;-1.684;2022-08-19T05:34:41;19.30;83.70
52575;DHT22;38468;48.114;-1.684;2022-08-19T05:36:43;19.40;83.50
52575;DHT22;38468;48.114;-1.684;2022-08-19T05:38:43;19.30;83.50
52575;DHT22;38468;48.114;-1.684;2022-08-19T05:40:44;19.20;83.70
52575;DHT22;38468;48.114;-1.684;2022-08-19T05:42:48;19.30;83.70
52575;DHT22;38468;48.114;-1.684;2022-08-19T05:44:50;19.30;83.60
52575;DHT22;38468;48.114;-1.684;2022-08-19T05:46:51;19.30;83.50
52575;DHT22;38468;48.114;-1.684;2022-08-19T05:48:54;19.20;83.70
52575;DHT22;38468;48.114;-1.684;2022-08-19T05:50:56;19.20;83.80
52575;DHT22;38468;48.114;-1.684;2022-08-19T05:52:58;19.20;83.90
52575;DHT22;38468;48.114;-1.684;2022-08-19T05:54:59;19.20;83.90
52575;DHT22;38468;48.114;-1.684;2022-08-19T05:57:00;19.20;83.80
52575;DHT22;38468;48.114;-1.684;2022-08-19T05:59:00;19.20;83.80
52575;DHT22;38468;48.114;-1.684;2022-08-19T06:01:01;19.30;83.80
52575;DHT22;38468;48.114;-1.684;2022-08-19T06:03:05;19.30;83.70
52575;DHT22;38468;48.114;-1.684;2022-08-19T06:05:07;19.30;83.70
52575;DHT22;38468;48.114;-1.684;2022-08-19T06:07:09;19.30;83.70
52575;DHT22;38468;48.114;-1.684;2022-08-19T06:09:10;19.40;83.60
52575;DHT22;38468;48.114;-1.684;2022-08-19T06:13:31;19.20;83.80
52575;DHT22;38468;48.114;-1.684;2022-08-19T06:15:31;19.20;83.80
52575;DHT22;38468;48.114;-1.684;2022-08-19T06:17:32;19.20;83.90
52575;DHT22;38468;48.114;-1.684;2022-08-19T06:19:34;19.30;83.80
52575;DHT22;38468;48.114;-1.684;2022-08-19T06:21:36;19.40;83.70
52575;DHT22;38468;48.114;-1.684;2022-08-19T06:23:37;19.50;83.60
52575;DHT22;38468;48.114;-1.684;2022-08-19T06:25:39;19.40;83.50
52575;DHT22;38468;48.114;-1.684;2022-08-19T06:27:40;19.40;83.70
52575;DHT22;38468;48.114;-1.684;2022-08-19T06:29:40;19.50;83.50
52575;DHT22;38468;48.114;-1.684;2022-08-19T06:31:43;19.50;83.50
52575;DHT22;38468;48.114;-1.684;2022-08-19T06:33:44;19.40;83.60
52575;DHT22;38468;48.114;-1.684;2022-08-19T06:35:45;19.40;83.80
52575;DHT22;38468;48.114;-1.684;2022-08-19T06:37:45;19.50;83.60
52575;DHT22;38468;48.114;-1.684;2022-08-19T06:39:47;19.50;83.60
52575;DHT22;38468;48.114;-1.684;2022-08-19T06:41:48;19.70;83.40
52575;DHT22;38468;48.114;-1.684;2022-08-19T06:43:49;19.80;83.30
52575;DHT22;38468;48.114;-1.684;2022-08-19T06:45:50;19.80;83.10
52575;DHT22;38468;48.114;-1.684;2022-08-19T06:47:52;19.90;83.10
52575;DHT22;38468;48.114;-1.684;2022-08-19T06:49:56;19.80;83.10
52575;DHT22;38468;48.114;-1.684;2022-08-19T06:52:02;19.50;83.50
52575;DHT22;38468;48.114;-1.684;2022-08-19T06:54:03;19.60;83.70
52575;DHT22;38468;48.114;-1.684;2022-08-19T06:56:03;19.70;83.60
52575;DHT22;38468;48.114;-1.684;2022-08-19T06:58:04;19.80;83.30
52575;DHT22;38468;48.114;-1.684;2022-08-19T07:00:05;19.80;83.20
52575;DHT22;38468;48.114;-1.684;2022-08-19T07:02:11;20.00;83.10
52575;DHT22;38468;48.114;-1.684;2022-08-19T07:04:12;20.00;82.90
52575;DHT22;38468;48.114;-1.684;2022-08-19T07:06:14;20.00;82.90
52575;DHT22;38468;48.114;-1.684;2022-08-19T07:08:17;19.90;82.70
52575;DHT22;38468;48.114;-1.684;2022-08-19T07:10:18;19.70;83.20
52575;DHT22;38468;48.114;-1.684;2022-08-19T07:12:19;19.70;83.40
52575;DHT22;38468;48.114;-1.684;2022-08-19T07:14:21;19.80;83.40
52575;DHT22;38468;48.114;-1.684;2022-08-19T07:16:22;20.00;82.90
52575;DHT22;38468;48.114;-1.684;2022-08-19T07:18:23;19.90;82.80
52575;DHT22;38468;48.114;-1.684;2022-08-19T07:20:23;20.00;83.00
52575;DHT22;38468;48.114;-1.684;2022-08-19T07:22:24;20.00;82.90
52575;DHT22;38468;48.114;-1.684;2022-08-19T07:24:25;19.90;82.90
52575;DHT22;38468;48.114;-1.684;2022-08-19T07:26:27;19.90;82.90
52575;DHT22;38468;48.114;-1.684;2022-08-19T07:28:28;20.00;82.80
52575;DHT22;38468;48.114;-1.684;2022-08-19T07:30:29;20.00;82.70
52575;DHT22;38468;48.114;-1.684;2022-08-19T07:32:29;20.10;82.50
52575;DHT22;38468;48.114;-1.684;2022-08-19T07:34:31;20.10;82.30
52575;DHT22;38468;48.114;-1.684;2022-08-19T07:36:37;20.10;82.40
52575;DHT22;38468;48.114;-1.684;2022-08-19T07:38:43;20.00;82.60
52575;DHT22;38468;48.114;-1.684;2022-08-19T07:40:45;20.10;82.60
52575;DHT22;38468;48.114;-1.684;2022-08-19T07:42:46;20.10;82.50
52575;DHT22;38468;48.114;-1.684;2022-08-19T07:44:46;20.20;82.30
52575;DHT22;38468;48.114;-1.684;2022-08-19T07:46:48;20.20;82.30
52575;DHT22;38468;48.114;-1.684;2022-08-19T07:48:50;20.10;82.10
52575;DHT22;38468;48.114;-1.684;2022-08-19T07:50:52;20.10;82.30
52575;DHT22;38468;48.114;-1.684;2022-08-19T07:52:54;20.10;82.40
52575;DHT22;38468;48.114;-1.684;2022-08-19T07:54:55;20.30;82.20
52575;DHT22;38468;48.114;-1.684;2022-08-19T07:56:55;20.40;82.00
52575;DHT22;38468;48.114;-1.684;2022-08-19T07:58:56;20.50;81.70
52575;DHT22;38468;48.114;-1.684;2022-08-19T08:00:57;20.70;81.50
52575;DHT22;38468;48.114;-1.684;2022-08-19T08:02:58;20.70;81.20
52575;DHT22;38468;48.114;-1.684;2022-08-19T08:04:58;20.70;81.10
52575;DHT22;38468;48.114;-1.684;2022-08-19T08:07:18;20.50;81.30
52575;DHT22;38468;48.114;-1.684;2022-08-19T08:09:38;20.50;81.40
52575;DHT22;38468;48.114;-1.684;2022-08-19T08:11:40;20.70;81.30
52575;DHT22;38468;48.114;-1.684;2022-08-19T08:13:42;20.90;81.00
52575;DHT22;38468;48.114;-1.684;2022-08-19T08:15:43;21.00;80.70
52575;DHT22;38468;48.114;-1.684;2022-08-19T08:17:44;21.20;79.80
52575;DHT22;38468;48.114;-1.684;2022-08-19T08:19:46;21.00;79.70
52575;DHT22;38468;48.114;-1.684;2022-08-19T08:21:47;21.10;80.00
52575;DHT22;38468;48.114;-1.684;2022-08-19T08:23:47;21.20;79.90
52575;DHT22;38468;48.114;-1.684;2022-08-19T08:25:53;21.50;79.20
52575;DHT22;38468;48.114;-1.684;2022-08-19T08:27:54;21.70;78.70
52575;DHT22;38468;48.114;-1.684;2022-08-19T08:29:57;21.80;78.20
52575;DHT22;38468;48.114;-1.684;2022-08-19T08:31:57;21.70;77.80
52575;DHT22;38468;48.114;-1.684;2022-08-19T08:33:58;21.70;78.10
52575;DHT22;38468;48.114;-1.684;2022-08-19T08:35:58;21.70;77.30
52575;DHT22;38468;48.114;-1.684;2022-08-19T08:37:59;21.40;77.60
52575;DHT22;38468;48.114;-1.684;2022-08-19T08:40:02;21.20;78.50
52575;DHT22;38468;48.114;-1.684;2022-08-19T08:42:17;21.20;78.80
52575;DHT22;38468;48.114;-1.684;2022-08-19T08:44:28;21.50;78.20
52575;DHT22;38468;48.114;-1.684;2022-08-19T08:46:39;21.50;78.30
52575;DHT22;38468;48.114;-1.684;2022-08-19T08:50:42;21.60;78.20
52575;DHT22;38468;48.114;-1.684;2022-08-19T08:52:46;21.50;78.20
52575;DHT22;38468;48.114;-1.684;2022-08-19T08:54:48;21.80;78.00
52575;DHT22;38468;48.114;-1.684;2022-08-19T08:56:49;21.80;77.60
52575;DHT22;38468;48.114;-1.684;2022-08-19T08:58:58;22.00;77.30
52575;DHT22;38468;48.114;-1.684;2022-08-19T09:00:59;22.20;77.20
52575;DHT22;38468;48.114;-1.684;2022-08-19T09:03:00;22.50;75.70
52575;DHT22;38468;48.114;-1.684;2022-08-19T09:05:02;22.70;75.70
52575;DHT22;38468;48.114;-1.684;2022-08-19T09:07:50;22.80;73.60
52575;DHT22;38468;48.114;-1.684;2022-08-19T09:09:32;22.70;75.50
52575;DHT22;38468;48.114;-1.684;2022-08-19T09:11:50;22.20;75.10
52575;DHT22;38468;48.114;-1.684;2022-08-19T09:16:06;22.50;74.40
52575;DHT22;38468;48.114;-1.684;2022-08-19T09:18:07;22.50;74.30
52575;DHT22;38468;48.114;-1.684;2022-08-19T09:22:10;22.50;75.10
52575;DHT22;38468;48.114;-1.684;2022-08-19T09:24:11;22.20;75.20
52575;DHT22;38468;48.114;-1.684;2022-08-19T09:26:13;22.10;75.90
52575;DHT22;38468;48.114;-1.684;2022-08-19T09:28:14;22.20;76.00
52575;DHT22;38468;48.114;-1.684;2022-08-19T09:30:17;22.20;75.60
52575;DHT22;38468;48.114;-1.684;2022-08-19T09:32:19;22.20;75.80
52575;DHT22;38468;48.114;-1.684;2022-08-19T09:34:19;22.40;75.40
52575;DHT22;38468;48.114;-1.684;2022-08-19T09:36:20;22.30;75.20
52575;DHT22;38468;48.114;-1.684;2022-08-19T09:38:22;22.20;75.00
52575;DHT22;38468;48.114;-1.684;2022-08-19T09:40:23;22.20;75.10
52575;DHT22;38468;48.114;-1.684;2022-08-19T09:42:23;22.20;75.20
52575;DHT22;38468;48.114;-1.684;2022-08-19T09:44:24;22.20;75.20
52575;DHT22;38468;48.114;-1.684;2022-08-19T09:46:25;22.40;75.40
52575;DHT22;38468;48.114;-1.684;2022-08-19T09:48:26;22.40;75.40
52575;DHT22;38468;48.114;-1.684;2022-08-19T09:50:27;22.50;74.90
52575;DHT22;38468;48.114;-1.684;2022-08-19T09:52:27;22.60;74.90
52575;DHT22;38468;48.114;-1.684;2022-08-19T09:54:28;22.80;74.40
52575;DHT22;38468;48.114;-1.684;2022-08-19T09:56:29;22.70;73.90
52575;DHT22;38468;48.114;-1.684;2022-08-19T09:58:30;22.60;74.00
52575;DHT22;38468;48.114;-1.684;2022-08-19T10:00:32;22.50;74.70
52575;DHT22;38468;48.114;-1.684;2022-08-19T10:02:33;22.50;74.40
52575;DHT22;38468;48.114;-1.684;2022-08-19T10:04:33;22.50;75.00
52575;DHT22;38468;48.114;-1.684;2022-08-19T10:06:54;22.50;74.50
52575;DHT22;38468;48.114;-1.684;2022-08-19T10:08:55;22.50;74.50
52575;DHT22;38468;48.114;-1.684;2022-08-19T10:10:57;22.60;74.50
52575;DHT22;38468;48.114;-1.684;2022-08-19T10:12:58;22.70;74.30
52575;DHT22;38468;48.114;-1.684;2022-08-19T10:14:59;22.60;74.40
52575;DHT22;38468;48.114;-1.684;2022-08-19T10:17:00;22.40;75.40
52575;DHT22;38468;48.114;-1.684;2022-08-19T10:19:02;22.40;75.60
52575;DHT22;38468;48.114;-1.684;2022-08-19T10:21:10;22.40;75.80
52575;DHT22;38468;48.114;-1.684;2022-08-19T10:23:12;22.50;76.00
52575;DHT22;38468;48.114;-1.684;2022-08-19T10:25:12;22.30;75.30
52575;DHT22;38468;48.114;-1.684;2022-08-19T10:27:16;22.30;75.70
52575;DHT22;38468;48.114;-1.684;2022-08-19T10:29:17;22.40;75.50
52575;DHT22;38468;48.114;-1.684;2022-08-19T10:31:21;22.30;75.90
52575;DHT22;38468;48.114;-1.684;2022-08-19T10:33:23;22.30;75.60
52575;DHT22;38468;48.114;-1.684;2022-08-19T10:35:24;22.20;75.90
52575;DHT22;38468;48.114;-1.684;2022-08-19T10:37:29;22.10;76.80
52575;DHT22;38468;48.114;-1.684;2022-08-19T10:39:32;22.10;76.80
52575;DHT22;38468;48.114;-1.684;2022-08-19T10:41:34;22.40;76.40
52575;DHT22;38468;48.114;-1.684;2022-08-19T10:43:35;22.50;76.00
52575;DHT22;38468;48.114;-1.684;2022-08-19T10:45:39;22.50;75.60
52575;DHT22;38468;48.114;-1.684;2022-08-19T10:47:40;22.40;75.90
52575;DHT22;38468;48.114;-1.684;2022-08-19T10:49:40;22.20;76.30
52575;DHT22;38468;48.114;-1.684;2022-08-19T10:52:01;21.90;77.50
52575;DHT22;38468;48.114;-1.684;2022-08-19T10:54:20;22.00;78.10
52575;DHT22;38468;48.114;-1.684;2022-08-19T10:56:20;22.20;77.40
52575;DHT22;38468;48.114;-1.684;2022-08-19T10:58:39;22.20;77.00
52575;DHT22;38468;48.114;-1.684;2022-08-19T11:00:41;22.40;77.30
52575;DHT22;38468;48.114;-1.684;2022-08-19T11:02:43;22.50;76.50
52575;DHT22;38468;48.114;-1.684;2022-08-19T11:04:43;22.40;76.40
52575;DHT22;38468;48.114;-1.684;2022-08-19T11:06:45;22.30;76.20
52575;DHT22;38468;48.114;-1.684;2022-08-19T11:08:47;22.20;77.50
52575;DHT22;38468;48.114;-1.684;2022-08-19T11:10:48;22.30;78.40
52575;DHT22;38468;48.114;-1.684;2022-08-19T11:12:49;22.30;78.50
52575;DHT22;38468;48.114;-1.684;2022-08-19T11:14:54;22.20;78.60
52575;DHT22;38468;48.114;-1.684;2022-08-19T11:16:55;22.30;79.20
52575;DHT22;38468;48.114;-1.684;2022-08-19T11:18:57;22.50;79.10
52575;DHT22;38468;48.114;-1.684;2022-08-19T11:21:08;22.70;78.00
52575;DHT22;38468;48.114;-1.684;2022-08-19T11:23:08;22.80;77.70
52575;DHT22;38468;48.114;-1.684;2022-08-19T11:25:10;22.90;77.10
52575;DHT22;38468;48.114;-1.684;2022-08-19T11:27:11;23.00;76.80
52575;DHT22;38468;48.114;-1.684;2022-08-19T11:29:12;23.00;77.20
52575;DHT22;38468;48.114;-1.684;2022-08-19T11:31:14;23.00;76.40
52575;DHT22;38468;48.114;-1.684;2022-08-19T11:33:14;22.90;76.20
52575;DHT22;38468;48.114;-1.684;2022-08-19T11:35:15;22.80;75.80
52575;DHT22;38468;48.114;-1.684;2022-08-19T11:37:16;22.80;75.10
52575;DHT22;38468;48.114;-1.684;2022-08-19T11:39:18;22.70;75.90
52575;DHT22;38468;48.114;-1.684;2022-08-19T11:41:19;22.90;76.00
52575;DHT22;38468;48.114;-1.684;2022-08-19T11:43:20;23.00;75.80
52575;DHT22;38468;48.114;-1.684;2022-08-19T11:45:21;23.10;75.40
52575;DHT22;38468;48.114;-1.684;2022-08-19T11:47:22;23.10;74.70
52575;DHT22;38468;48.114;-1.684;2022-08-19T11:49:22;23.00;74.40
52575;DHT22;38468;48.114;-1.684;2022-08-19T11:51:23;22.90;73.90
52575;DHT22;38468;48.114;-1.684;2022-08-19T11:53:27;22.80;73.70
52575;DHT22;38468;48.114;-1.684;2022-08-19T11:55:29;22.80;73.80
52575;DHT22;38468;48.114;-1.684;2022-08-19T11:57:30;22.90;73.70
52575;DHT22;38468;48.114;-1.684;2022-08-19T11:59:31;22.90;73.30
52575;DHT22;38468;48.114;-1.684;2022-08-19T12:01:31;22.90;73.20
52575;DHT22;38468;48.114;-1.684;2022-08-19T12:03:32;22.90;73.00
52575;DHT22;38468;48.114;-1.684;2022-08-19T12:05:36;22.40;74.50
52575;DHT22;38468;48.114;-1.684;2022-08-19T12:07:36;22.10;76.20
52575;DHT22;38468;48.114;-1.684;2022-08-19T12:09:37;22.00;77.10
52575;DHT22;38468;48.114;-1.684;2022-08-19T12:11:39;21.90;77.80
52575;DHT22;38468;48.114;-1.684;2022-08-19T12:13:41;21.90;78.20
52575;DHT22;38468;48.114;-1.684;2022-08-19T12:15:46;22.00;78.70
52575;DHT22;38468;48.114;-1.684;2022-08-19T12:17:47;22.00;78.50
52575;DHT22;38468;48.114;-1.684;2022-08-19T12:19:48;22.00;78.50
52575;DHT22;38468;48.114;-1.684;2022-08-19T12:21:49;22.00;78.70
52575;DHT22;38468;48.114;-1.684;2022-08-19T12:23:50;22.00;78.60
52575;DHT22;38468;48.114;-1.684;2022-08-19T12:25:51;21.80;79.40
52575;DHT22;38468;48.114;-1.684;2022-08-19T12:27:52;21.80;79.50
52575;DHT22;38468;48.114;-1.684;2022-08-19T12:29:53;22.00;79.60
52575;DHT22;38468;48.114;-1.684;2022-08-19T12:31:53;22.30;79.30
52575;DHT22;38468;48.114;-1.684;2022-08-19T12:33:54;22.20;79.20
52575;DHT22;38468;48.114;-1.684;2022-08-19T12:35:55;22.40;79.10
52575;DHT22;38468;48.114;-1.684;2022-08-19T12:37:59;22.60;78.60
52575;DHT22;38468;48.114;-1.684;2022-08-19T12:40:02;22.50;78.20
52575;DHT22;38468;48.114;-1.684;2022-08-19T12:42:03;22.50;78.20
52575;DHT22;38468;48.114;-1.684;2022-08-19T12:44:04;22.50;78.50
52575;DHT22;38468;48.114;-1.684;2022-08-19T12:46:05;22.20;78.70